Peotone Weather

Nearby METAR Reports

 

KIGQ - Lansing, Illinois, USA
Distance from station: NE 19mi, 30km
Updated: Fri, 21-Jul-2017 9:35am CDT
Clear
Clear
 Wind from SSW
Wind: SSW 7 mph , 11 km/h
Temperature: 79°F , 26°C
Dew Point: 70°F , 21°C
Humidity: 74%
Barometer: 30.00 inHg , 1015.9 hPa
Clouds: Clear
Visibility: 10 miles , 16 km
2017/07/21 14:35 KIGQ 211435Z AUTO 21006KT 10SM CLR 26/21 A3000 RMK AO2 T02580212
KIKK - Kankakee, Illinois, USA
Distance from station: S 19mi, 30km
Updated: Fri, 21-Jul-2017 9:35am CDT
Light rain, Mostly cloudy
Light rain, Mostly cloudy
 Wind from W
Wind: W 3 mph , 6 km/h
Temperature: 73°F , 23°C
Dew Point: 72°F , 22°C
Humidity: 94%
Barometer: 30.02 inHg , 1016.6 hPa
Summary: Light rain
Clouds: Mostly cloudy
Visibility: 10 miles , 16 km
Cloud details: Partly cloudy 2900 ft
Partly cloudy 6000 ft
Mostly cloudy 7500 ft
2017/07/21 14:35 KIKK 211435Z AUTO 28003KT 10SM -RA SCT029 SCT060 BKN075 23/22 A3002 RMK AO2 P0002 T02250221
 
KSJC - Joliet, Illinois, USA
Distance from station: WNW 24mi, 38km
Updated: Fri, 21-Jul-2017 8:53am CDT
NOT Current
Clear
Clear
 Wind from NNW
Wind: NNW 5 mph , 7 km/h
Temperature: 61°F , 16°C
Dew Point: 54°F , 12°C
Humidity: 77%
Barometer: 30.01 inHg , 1016.3 hPa
Clouds: Clear
Visibility: 10 miles , 16 km
2017/07/21 13:53 KSJC 211353Z 33004KT 10SM CLR 16/12 A3001 RMK AO2 SLP163 T01560117
KLOT - Romeoville, Illinois, USA
Distance from station: NW 26mi, 41km
Updated: Fri, 21-Jul-2017 9:35am CDT
Clear
Clear
 Wind from calm
Wind: Calm
Temperature: 79°F , 26°C
Dew Point: 70°F , 21°C
Humidity: 74%
Barometer: 30.01 inHg , 1016.3 hPa
Clouds: Clear
Visibility: 10 miles , 16 km
2017/07/21 14:35 KLOT 211435Z AUTO 00000KT 10SM CLR 26/21 A3001 RMK AO2 T02570209
 
KMDW - Midway Airport Chicago, Illinois, USA
Distance from station: N 31mi, 50km
Updated: Fri, 21-Jul-2017 8:53am CDT
NOT Current
Mostly cloudy
Mostly cloudy
 Wind from SSE
Wind: SSE 7 mph , 11 km/h
Temperature: 82°F , 28°C
Heat Index: 86°F , 30°C
Dew Point: 70°F , 21°C
Humidity: 66%
Barometer: 29.99 inHg , 1015.6 hPa
Clouds: Mostly cloudy
Visibility: 10 miles , 16 km
Cloud details: Few Clouds 4000 ft
Few Clouds 9000 ft
Partly cloudy 16000 ft
Mostly cloudy 25000 ft
2017/07/21 13:53 KMDW 211353Z 16006KT 10SM FEW040 FEW090 SCT160 BKN250 28/21 A2999 RMK AO2 SLP143 T02780211
KC09 - Morris, Illinois, USA
Distance from station: W 34mi, 54km
Updated: Fri, 21-Jul-2017 9:35am CDT
Partly cloudy
Partly cloudy
 Wind from calm
Wind: Calm
Temperature: 77°F , 25°C
Dew Point: 72°F , 22°C
Humidity: 83%
Barometer: 29.98 inHg , 1015.2 hPa
Clouds: Partly cloudy
Visibility: 10 miles , 16 km
Cloud details: Partly cloudy 11000 ft
2017/07/21 14:35 KC09 211435Z AUTO 00000KT 10SM SCT110 25/22 A2998 RMK AO2 T02460223

Metar display script from Saratoga-Weather.org